Time;durP1;ratioP1;P1;durP2;ratioP2;P2;SDS_P1;SDS_P2;PMS_P1;PMS_P2;Temp;Humidity;BMP_temperature;BMP_pressure;BME280_temperature;BME280_humidity;BME280_pressure;Samples;Min_cycle;Max_cycle;Signal;HPM_P1;HPM_P2
2023/09/10 00:00:49;;;;;;;7.53;6.77;;;25.00;99.90;;;;;;5015090;28;20842;-48
2023/09/10 00:03:16;;;;;;;7.30;6.67;;;25.00;99.90;;;;;;5016569;28;20583;-49
2023/09/10 00:05:44;;;;;;;7.17;6.67;;;25.00;99.90;;;;;;5013254;28;20462;-48
2023/09/10 00:08:11;;;;;;;7.47;6.77;;;25.00;99.90;;;;;;5014913;28;20462;-50
2023/09/10 00:10:39;;;;;;;6.17;5.70;;;25.00;99.90;;;;;;5015024;28;20470;-47
2023/09/10 00:13:06;;;;;;;7.17;6.57;;;25.00;99.90;;;;;;5015465;28;20547;-49
2023/09/10 00:15:33;;;;;;;6.10;5.30;;;25.00;99.90;;;;;;5016272;28;20459;-54
2023/09/10 00:17:59;;;;;;;7.17;6.50;;;25.00;99.90;;;;;;5014860;28;20942;-47
2023/09/10 00:20:27;;;;;;;6.03;5.43;;;25.00;99.90;;;;;;5013267;28;20489;-48
2023/09/10 00:22:56;;;;;;;7.03;5.70;;;25.00;99.90;;;;;;5015487;28;20566;-50
2023/09/10 00:25:23;;;;;;;6.93;6.43;;;25.00;99.90;;;;;;5015900;28;20466;-51
2023/09/10 00:27:49;;;;;;;8.90;6.90;;;25.00;99.90;;;;;;5012048;28;21137;-50
2023/09/10 00:30:15;;;;;;;7.80;7.10;;;25.00;99.90;;;;;;5015267;28;20485;-49
2023/09/10 00:32:42;;;;;;;6.77;6.27;;;25.00;99.90;;;;;;5013820;28;20459;-46
2023/09/10 00:35:09;;;;;;;7.00;6.40;;;25.00;99.90;;;;;;5010080;28;20762;-51
2023/09/10 00:37:36;;;;;;;6.80;6.30;;;25.00;99.90;;;;;;5012962;28;20469;-48
2023/09/10 00:40:05;;;;;;;7.30;6.77;;;25.00;99.90;;;;;;5010881;28;20471;-50
2023/09/10 00:42:32;;;;;;;6.70;6.10;;;25.00;99.90;;;;;;5013345;28;20568;-53
2023/09/10 00:44:58;;;;;;;6.63;6.10;;;25.00;99.90;;;;;;5012774;28;20471;-47
2023/09/10 00:47:25;;;;;;;5.90;5.50;;;25.00;99.90;;;;;;5010547;28;20930;-50
2023/09/10 00:49:53;;;;;;;5.63;5.13;;;25.00;99.90;;;;;;5012659;28;20459;-50
2023/09/10 00:52:21;;;;;;;6.53;6.03;;;25.00;99.90;;;;;;5008809;28;20474;-48
2023/09/10 00:54:48;;;;;;;6.53;5.80;;;25.00;99.90;;;;;;5008105;28;20450;-51
2023/09/10 00:57:17;;;;;;;7.13;6.43;;;25.00;99.90;;;;;;5010414;28;20465;-48
2023/09/10 00:59:45;;;;;;;6.73;5.83;;;24.90;99.90;;;;;;5010616;28;20462;-49
2023/09/10 01:02:13;;;;;;;7.67;7.03;;;25.00;99.90;;;;;;5012228;28;20462;-50
2023/09/10 01:04:40;;;;;;;6.37;5.80;;;25.00;99.90;;;;;;5009485;28;20463;-47
2023/09/10 01:07:07;;;;;;;6.30;5.80;;;24.90;99.90;;;;;;5008589;28;21111;-54
2023/09/10 01:09:34;;;;;;;6.10;5.60;;;24.90;99.90;;;;;;5008416;28;20470;-50
2023/09/10 01:12:10;;;;;;;6.40;5.90;;;24.90;99.90;;;;;;5009243;28;20966;-53
2023/09/10 01:14:43;;;;;;;6.30;5.90;;;24.90;99.90;;;;;;5007966;28;21280;-46
2023/09/10 01:17:16;;;;;;;7.77;7.17;;;24.90;99.90;;;;;;5008188;28;20968;-51
2023/09/10 01:19:54;;;;;;;6.77;6.17;;;24.90;99.90;;;;;;5008049;28;20459;-47
2023/09/10 01:22:30;;;;;;;5.50;5.10;;;24.90;99.90;;;;;;5011063;28;20494;-48
2023/09/10 01:25:00;;;;;;;6.93;6.43;;;24.90;99.90;;;;;;5010739;28;20469;-50
2023/09/10 01:27:26;;;;;;;6.40;5.87;;;24.90;99.90;;;;;;5008582;28;20459;-51
2023/09/10 01:29:53;;;;;;;7.83;7.03;;;24.90;99.90;;;;;;5014395;28;20454;-55
2023/09/10 01:32:27;;;;;;;6.27;5.87;;;24.90;99.90;;;;;;5009788;28;20462;-56
2023/09/10 01:35:00;;;;;;;6.87;5.60;;;24.90;99.90;;;;;;5008078;28;20466;-50
2023/09/10 01:37:34;;;;;;;6.70;6.20;;;24.90;99.90;;;;;;5011128;28;20482;-56
2023/09/10 01:40:05;;;;;;;6.67;6.13;;;24.90;99.90;;;;;;5009061;28;20475;-47
2023/09/10 01:42:33;;;;;;;6.63;6.20;;;24.90;99.90;;;;;;5010827;28;20485;-52
2023/09/10 01:45:01;;;;;;;6.77;6.07;;;24.90;99.90;;;;;;5013813;28;20493;-51
2023/09/10 01:47:28;;;;;;;6.83;6.30;;;24.90;99.90;;;;;;5013306;28;20473;-47
2023/09/10 01:49:55;;;;;;;6.80;6.20;;;24.90;99.90;;;;;;5007693;28;20466;-49
2023/09/10 01:52:21;;;;;;;6.20;5.70;;;24.90;99.90;;;;;;5018087;28;20520;-51
2023/09/10 01:54:48;;;;;;;5.60;5.20;;;24.90;99.90;;;;;;5018802;28;20469;-53
2023/09/10 01:57:16;;;;;;;7.07;6.57;;;24.90;99.90;;;;;;5014400;28;20843;-49
2023/09/10 01:59:43;;;;;;;5.97;5.57;;;24.90;99.90;;;;;;5007101;28;20475;-55
2023/09/10 02:02:10;;;;;;;6.90;6.30;;;24.90;99.90;;;;;;5007892;28;20807;-54
2023/09/10 02:04:36;;;;;;;6.10;5.60;;;24.90;99.90;;;;;;5013043;28;20486;-46
2023/09/10 02:07:03;;;;;;;6.50;6.00;;;24.90;99.90;;;;;;5005774;28;20462;-47
2023/09/10 02:09:30;;;;;;;7.03;5.80;;;24.90;99.90;;;;;;5012009;28;20458;-50
2023/09/10 02:11:56;;;;;;;6.43;5.93;;;24.90;99.90;;;;;;5010746;28;20971;-48
2023/09/10 02:14:25;;;;;;;6.80;6.30;;;24.90;99.90;;;;;;5001697;28;20467;-49
2023/09/10 02:16:52;;;;;;;6.40;5.90;;;24.90;99.90;;;;;;5012774;28;20459;-51
2023/09/10 02:19:19;;;;;;;5.97;5.57;;;24.80;99.90;;;;;;5009193;28;20895;-50
2023/09/10 02:21:45;;;;;;;7.00;6.50;;;24.90;99.90;;;;;;5003734;28;20967;-52
2023/09/10 02:24:12;;;;;;;10.83;6.53;;;24.90;99.90;;;;;;5004389;28;20479;-47
2023/09/10 02:26:39;;;;;;;7.30;6.70;;;24.80;99.90;;;;;;5013761;28;20459;-57
2023/09/10 02:29:06;;;;;;;7.47;6.73;;;24.90;99.90;;;;;;5015354;28;20996;-47
2023/09/10 02:31:34;;;;;;;6.60;6.03;;;24.80;99.90;;;;;;5009856;28;20461;-48
2023/09/10 02:34:01;;;;;;;6.43;5.93;;;24.80;99.90;;;;;;5016132;28;20979;-50
2023/09/10 02:36:28;;;;;;;6.10;5.50;;;24.80;99.90;;;;;;5021276;28;20761;-46
2023/09/10 02:38:55;;;;;;;6.67;6.17;;;24.80;99.90;;;;;;5020251;28;20474;-47
2023/09/10 02:41:23;;;;;;;7.33;6.73;;;24.80;99.90;;;;;;5023323;28;20465;-53
2023/09/10 02:43:49;;;;;;;7.43;6.83;;;24.80;99.90;;;;;;5022260;28;20481;-46
2023/09/10 02:46:16;;;;;;;6.80;6.20;;;24.90;99.90;;;;;;5019998;28;20536;-47
2023/09/10 02:48:44;;;;;;;5.63;5.20;;;24.80;99.90;;;;;;5019599;28;20473;-49
2023/09/10 02:51:11;;;;;;;6.17;5.77;;;24.80;99.90;;;;;;5012374;28;20462;-46
2023/09/10 02:53:37;;;;;;;6.97;6.37;;;24.80;99.90;;;;;;5014812;28;20842;-46
2023/09/10 02:56:04;;;;;;;6.17;5.77;;;24.80;99.90;;;;;;5014418;28;20466;-47
2023/09/10 02:58:32;;;;;;;6.50;6.00;;;24.80;99.90;;;;;;5014134;28;20465;-48
2023/09/10 03:01:03;;;;;;;7.30;6.60;;;24.80;99.90;;;;;;5014107;28;20470;-47
2023/09/10 03:03:30;;;;;;;6.97;6.47;;;24.80;99.90;;;;;;5016097;28;20547;-53
2023/09/10 03:05:58;;;;;;;6.87;6.37;;;24.80;99.90;;;;;;5015720;28;20895;-47
2023/09/10 03:08:25;;;;;;;6.27;5.87;;;24.80;99.90;;;;;;5013417;28;20459;-47
2023/09/10 03:10:51;;;;;;;6.23;5.73;;;24.80;99.90;;;;;;5018719;28;20461;-49
2023/09/10 03:13:18;;;;;;;6.60;6.10;;;24.80;99.90;;;;;;5017677;28;20468;-50
2023/09/10 03:15:47;;;;;;;5.50;5.00;;;24.80;99.90;;;;;;5014628;28;20462;-48
2023/09/10 03:18:14;;;;;;;7.30;6.70;;;24.80;99.90;;;;;;5017038;28;20463;-49
2023/09/10 03:20:42;;;;;;;6.77;6.27;;;24.80;99.90;;;;;;5018394;28;20454;-53
2023/09/10 03:23:10;;;;;;;6.23;5.73;;;24.80;99.90;;;;;;5019606;28;20482;-50
2023/09/10 03:25:37;;;;;;;5.63;5.23;;;24.80;99.90;;;;;;5014033;28;20463;-49
2023/09/10 03:28:05;;;;;;;6.63;6.13;;;24.80;99.90;;;;;;5015131;28;20728;-49
2023/09/10 03:30:31;;;;;;;6.50;6.00;;;24.80;99.90;;;;;;5010108;28;20477;-49
2023/09/10 03:32:58;;;;;;;6.27;5.80;;;24.80;99.90;;;;;;5013855;28;20775;-52
2023/09/10 03:35:25;;;;;;;6.23;5.83;;;24.80;99.90;;;;;;5015900;28;20461;-47
2023/09/10 03:37:51;;;;;;;6.60;6.07;;;24.80;99.90;;;;;;5014081;28;20486;-47
2023/09/10 03:40:20;;;;;;;7.00;6.47;;;24.80;99.90;;;;;;5018223;28;20970;-52
2023/09/10 03:42:46;;;;;;;6.43;5.83;;;24.80;99.90;;;;;;5017961;28;20454;-53
2023/09/10 03:45:13;;;;;;;6.10;5.70;;;24.80;99.90;;;;;;5013731;28;20542;-47
2023/09/10 03:47:40;;;;;;;7.07;6.47;;;24.80;99.90;;;;;;5012502;28;20485;-49
2023/09/10 03:50:07;;;;;;;7.27;6.30;;;24.80;99.90;;;;;;5010543;28;20463;-51
2023/09/10 03:52:34;;;;;;;6.47;5.87;;;24.80;99.90;;;;;;5013857;28;20460;-56
2023/09/10 03:55:00;;;;;;;6.20;5.60;;;24.80;99.90;;;;;;5013033;28;20473;-51
2023/09/10 03:57:28;;;;;;;6.97;6.43;;;24.80;99.90;;;;;;5012358;28;20462;-46
2023/09/10 03:59:55;;;;;;;6.30;5.80;;;24.80;99.90;;;;;;5011156;28;20466;-50
2023/09/10 04:02:22;;;;;;;5.83;5.33;;;24.80;99.90;;;;;;5009603;28;20493;-49
2023/09/10 04:04:49;;;;;;;5.70;5.30;;;24.80;99.90;;;;;;5014074;28;20483;-50
2023/09/10 04:07:15;;;;;;;7.27;6.77;;;24.80;99.90;;;;;;5012129;28;20851;-51
2023/09/10 04:09:42;;;;;;;6.37;5.87;;;24.80;99.90;;;;;;5010306;28;20475;-50
2023/09/10 04:12:09;;;;;;;6.23;5.73;;;24.80;99.90;;;;;;5014728;28;20529;-48
2023/09/10 04:14:37;;;;;;;6.47;5.97;;;24.80;99.90;;;;;;5016952;28;20804;-51
2023/09/10 04:17:04;;;;;;;6.03;5.53;;;24.70;99.90;;;;;;5011766;28;20466;-47
2023/09/10 04:19:31;;;;;;;6.67;6.17;;;24.70;99.90;;;;;;5006508;28;20493;-53
2023/09/10 04:21:57;;;;;;;6.40;5.80;;;24.70;99.90;;;;;;5006077;28;20462;-46
2023/09/10 04:24:24;;;;;;;6.20;5.70;;;24.70;99.90;;;;;;5007344;28;20479;-52
2023/09/10 04:26:51;;;;;;;6.57;6.00;;;24.70;99.90;;;;;;5011544;28;20462;-54
2023/09/10 04:29:18;;;;;;;5.63;5.23;;;24.70;99.90;;;;;;5011405;28;20454;-55
2023/09/10 04:31:46;;;;;;;6.60;6.10;;;24.70;99.90;;;;;;5017477;28;20472;-52
2023/09/10 04:34:13;;;;;;;5.90;5.50;;;24.70;99.90;;;;;;5016116;28;20459;-51
2023/09/10 04:36:39;;;;;;;6.67;6.17;;;24.70;99.90;;;;;;5013464;28;20458;-53
2023/09/10 04:39:08;;;;;;;6.13;5.63;;;24.70;99.90;;;;;;5015403;28;20816;-47
2023/09/10 04:41:35;;;;;;;7.47;6.77;;;24.70;99.90;;;;;;5005833;28;20815;-48
2023/09/10 04:44:02;;;;;;;5.47;5.00;;;24.70;99.90;;;;;;5013267;28;20532;-46
2023/09/10 04:46:29;;;;;;;5.77;5.37;;;24.70;99.90;;;;;;5011955;28;20466;-49
2023/09/10 04:48:58;;;;;;;6.27;5.67;;;24.70;99.90;;;;;;5012349;28;20466;-48
2023/09/10 04:51:25;;;;;;;6.03;5.60;;;24.70;99.90;;;;;;5014901;28;20574;-51
2023/09/10 04:53:51;;;;;;;6.27;5.77;;;24.70;99.90;;;;;;5012310;28;20495;-46
2023/09/10 04:56:18;;;;;;;7.30;6.43;;;24.70;99.90;;;;;;5013947;28;20469;-49
2023/09/10 04:58:45;;;;;;;7.13;6.13;;;24.70;99.90;;;;;;5012629;28;20922;-49
2023/09/10 05:01:12;;;;;;;6.60;6.17;;;24.70;99.90;;;;;;5012209;28;20458;-50
2023/09/10 05:03:41;;;;;;;5.53;5.13;;;24.70;99.90;;;;;;5013153;28;20486;-50
2023/09/10 05:06:09;;;;;;;7.13;6.40;;;24.70;99.90;;;;;;5013178;28;20470;-53
2023/09/10 05:08:36;;;;;;;7.20;6.60;;;24.70;99.90;;;;;;5012470;28;20493;-49
2023/09/10 05:11:03;;;;;;;7.30;6.70;;;24.70;99.90;;;;;;5011926;28;20467;-49
2023/09/10 05:13:30;;;;;;;6.50;6.00;;;24.70;99.90;;;;;;5011973;28;20538;-47
2023/09/10 05:15:57;;;;;;;6.80;6.10;;;24.70;99.90;;;;;;5011883;28;20463;-53
2023/09/10 05:18:24;;;;;;;7.13;6.60;;;24.70;99.90;;;;;;5009849;28;20462;-51
2023/09/10 05:20:52;;;;;;;6.60;6.10;;;24.70;99.90;;;;;;5011714;28;20884;-53
2023/09/10 05:23:22;;;;;;;6.73;6.23;;;24.60;99.90;;;;;;5015029;28;20593;-51
2023/09/10 05:25:49;;;;;;;6.73;6.23;;;24.60;99.90;;;;;;5011720;28;20454;-46
2023/09/10 05:28:16;;;;;;;7.40;6.70;;;24.60;99.90;;;;;;5014440;28;20843;-52
2023/09/10 05:30:43;;;;;;;6.03;5.63;;;24.70;99.90;;;;;;5013188;28;20485;-49
2023/09/10 05:33:10;;;;;;;5.90;5.40;;;24.70;99.90;;;;;;5012758;28;20819;-50
2023/09/10 05:35:36;;;;;;;5.53;5.13;;;24.60;99.90;;;;;;5015205;28;20485;-53
2023/09/10 05:38:03;;;;;;;6.30;5.80;;;24.60;99.90;;;;;;5011024;28;20820;-54
2023/09/10 05:40:36;;;;;;;5.70;5.30;;;24.60;99.90;;;;;;5013380;28;20458;-56
2023/09/10 05:43:03;;;;;;;5.70;5.27;;;24.60;99.90;;;;;;5007508;28;20494;-49
2023/09/10 05:45:32;;;;;;;6.40;5.90;;;24.60;99.90;;;;;;5012861;28;20478;-51
2023/09/10 05:47:59;;;;;;;6.83;6.23;;;24.60;99.90;;;;;;5010643;28;20942;-47
2023/09/10 05:50:26;;;;;;;6.30;5.80;;;24.60;99.90;;;;;;5008854;28;20452;-51
2023/09/10 05:52:55;;;;;;;6.60;6.10;;;24.60;99.90;;;;;;5012097;28;20879;-55
2023/09/10 05:55:22;;;;;;;6.60;6.00;;;24.60;99.90;;;;;;5011632;28;20477;-47
2023/09/10 05:57:51;;;;;;;6.87;6.17;;;24.60;99.90;;;;;;5013077;28;20636;-51
2023/09/10 06:00:18;;;;;;;6.70;6.10;;;24.60;99.90;;;;;;5007096;28;20454;-51
2023/09/10 06:02:44;;;;;;;5.80;5.40;;;24.60;99.90;;;;;;5005627;28;20601;-54
2023/09/10 06:05:11;;;;;;;8.33;5.40;;;24.60;99.90;;;;;;5007008;28;21648;-54
2023/09/10 06:07:38;;;;;;;6.83;6.33;;;24.60;99.90;;;;;;5007739;28;20675;-54
2023/09/10 06:10:08;;;;;;;7.50;6.90;;;24.60;99.90;;;;;;5010085;28;21107;-49
2023/09/10 06:12:35;;;;;;;8.20;7.50;;;24.60;99.90;;;;;;5010018;28;20553;-49
2023/09/10 06:15:04;;;;;;;7.40;6.80;;;24.60;99.90;;;;;;5007667;28;20473;-52
2023/09/10 06:17:31;;;;;;;6.67;6.17;;;24.60;99.90;;;;;;5009646;28;20506;-48
2023/09/10 06:19:58;;;;;;;6.67;6.07;;;24.60;99.90;;;;;;5008485;28;20463;-46
2023/09/10 06:22:24;;;;;;;7.60;6.90;;;24.60;99.90;;;;;;5008149;28;20466;-52
2023/09/10 06:24:51;;;;;;;7.30;6.70;;;24.60;99.90;;;;;;5007753;28;20843;-47
2023/09/10 06:27:18;;;;;;;11.60;8.50;;;24.60;99.90;;;;;;5015600;28;20463;-47
2023/09/10 06:29:45;;;;;;;7.73;7.13;;;24.60;99.90;;;;;;5009931;28;20460;-48
2023/09/10 06:32:13;;;;;;;8.70;7.80;;;24.60;99.90;;;;;;5008531;28;20804;-48
2023/09/10 06:34:40;;;;;;;9.30;7.77;;;24.60;99.90;;;;;;5006498;28;20466;-47
2023/09/10 06:37:06;;;;;;;13.50;9.90;;;24.60;99.90;;;;;;5006491;28;20983;-50
2023/09/10 06:39:38;;;;;;;11.47;10.30;;;24.60;99.90;;;;;;5009788;28;20907;-45
2023/09/10 06:42:05;;;;;;;10.67;9.70;;;24.60;99.90;;;;;;5012327;28;20461;-54
2023/09/10 06:44:32;;;;;;;9.30;8.50;;;24.60;99.90;;;;;;5011693;28;20478;-54
2023/09/10 06:46:59;;;;;;;11.30;9.90;;;24.60;99.90;;;;;;5008096;28;20982;-47
2023/09/10 06:49:27;;;;;;;12.03;8.83;;;24.60;99.90;;;;;;5012000;28;20513;-46
2023/09/10 06:51:53;;;;;;;11.90;10.80;;;24.60;99.90;;;;;;5007487;28;20467;-52
2023/09/10 06:54:20;;;;;;;10.63;9.63;;;24.60;99.90;;;;;;5014282;28;20894;-57
2023/09/10 06:56:47;;;;;;;10.90;9.30;;;24.60;99.90;;;;;;5011260;28;20473;-45
2023/09/10 06:59:14;;;;;;;11.17;10.27;;;24.60;99.90;;;;;;5012825;28;20458;-48
2023/09/10 07:01:40;;;;;;;13.73;11.60;;;24.60;99.90;;;;;;5006740;28;20451;-51
2023/09/10 07:04:17;;;;;;;13.03;9.87;;;24.60;99.90;;;;;;5011681;28;20470;-49
2023/09/10 07:06:46;;;;;;;14.87;10.57;;;24.60;99.90;;;;;;5012453;28;20485;-54
2023/09/10 07:09:13;;;;;;;9.87;8.83;;;24.60;99.90;;;;;;5009179;28;20459;-55
2023/09/10 07:11:40;;;;;;;8.87;8.17;;;24.50;99.90;;;;;;5003800;28;20459;-51
2023/09/10 07:14:07;;;;;;;13.97;12.47;;;24.60;99.90;;;;;;5002858;28;20470;-56
2023/09/10 07:16:34;;;;;;;11.63;10.43;;;24.60;99.90;;;;;;5003210;28;20838;-54
2023/09/10 07:19:01;;;;;;;14.27;13.00;;;24.60;99.90;;;;;;5003555;28;20465;-58
2023/09/10 07:21:28;;;;;;;13.07;10.83;;;24.60;99.90;;;;;;5004055;28;20879;-50
2023/09/10 07:23:56;;;;;;;16.00;14.40;;;24.60;99.90;;;;;;5005297;28;20463;-54
2023/09/10 07:26:23;;;;;;;13.90;12.50;;;24.60;99.90;;;;;;5006371;28;20459;-53
2023/09/10 07:28:49;;;;;;;15.10;13.73;;;24.60;99.90;;;;;;5007188;28;20466;-51
2023/09/10 07:31:16;;;;;;;10.90;9.80;;;24.60;99.90;;;;;;5006705;28;20555;-55
2023/09/10 07:33:43;;;;;;;14.43;13.03;;;24.60;99.90;;;;;;5006403;28;20485;-50
2023/09/10 07:36:09;;;;;;;9.73;8.83;;;24.60;99.90;;;;;;5006110;28;20467;-47
2023/09/10 07:38:36;;;;;;;9.80;8.00;;;24.60;99.90;;;;;;5005937;28;20451;-48
2023/09/10 07:41:04;;;;;;;13.97;12.60;;;24.60;99.90;;;;;;5005177;28;20831;-50
2023/09/10 07:43:31;;;;;;;8.33;7.63;;;24.60;99.90;;;;;;5006230;28;20459;-52
2023/09/10 07:45:58;;;;;;;8.97;8.27;;;24.60;99.90;;;;;;5005615;28;20838;-47
2023/09/10 07:48:24;;;;;;;8.87;8.07;;;24.60;99.90;;;;;;5006342;28;20470;-52
2023/09/10 07:50:55;;;;;;;8.63;7.87;;;24.60;99.90;;;;;;5005158;28;20461;-51
2023/09/10 07:53:22;;;;;;;9.33;8.53;;;24.60;99.90;;;;;;5004981;28;20474;-56
2023/09/10 07:55:49;;;;;;;7.83;7.13;;;24.60;99.90;;;;;;5005287;28;20568;-53
2023/09/10 07:58:18;;;;;;;8.60;7.70;;;24.60;99.90;;;;;;5008166;28;20506;-52
2023/09/10 08:00:44;;;;;;;11.70;8.57;;;24.60;99.90;;;;;;5008382;28;20462;-53
2023/09/10 08:03:13;;;;;;;9.17;8.27;;;24.60;99.90;;;;;;5013923;28;20474;-51
2023/09/10 08:05:39;;;;;;;10.60;9.70;;;24.60;99.90;;;;;;5012454;28;20597;-51
2023/09/10 08:08:06;;;;;;;8.53;7.63;;;24.60;99.90;;;;;;5006256;28;20466;-57
2023/09/10 08:10:34;;;;;;;7.70;7.10;;;24.60;99.90;;;;;;5004893;28;20459;-54
2023/09/10 08:13:03;;;;;;;9.10;8.40;;;24.60;99.90;;;;;;5004420;28;20462;-55
2023/09/10 08:15:31;;;;;;;9.80;9.00;;;24.60;99.90;;;;;;5006164;28;20466;-55
2023/09/10 08:17:59;;;;;;;9.03;8.23;;;24.60;99.90;;;;;;5016269;28;20470;-56
2023/09/10 08:20:25;;;;;;;8.17;7.37;;;24.60;99.90;;;;;;5011259;28;20811;-54
2023/09/10 08:22:52;;;;;;;8.50;7.80;;;24.60;99.90;;;;;;5016400;28;20459;-53
2023/09/10 08:25:19;;;;;;;10.63;9.53;;;24.60;99.90;;;;;;5017140;28;20816;-52
2023/09/10 08:27:46;;;;;;;9.73;8.93;;;24.60;99.90;;;;;;5013909;28;20465;-55
2023/09/10 08:30:13;;;;;;;8.87;8.17;;;24.60;99.90;;;;;;5015977;28;20553;-54
2023/09/10 08:32:42;;;;;;;10.67;9.67;;;24.60;99.90;;;;;;5012685;28;20966;-54
2023/09/10 08:35:09;;;;;;;9.10;8.30;;;24.60;99.90;;;;;;5013324;28;20494;-50
2023/09/10 08:37:36;;;;;;;10.73;9.83;;;24.60;99.90;;;;;;5016353;28;20457;-48
2023/09/10 08:40:04;;;;;;;12.73;11.63;;;24.60;99.90;;;;;;5014870;28;20974;-49
2023/09/10 08:42:37;;;;;;;10.90;9.33;;;24.60;99.90;;;;;;5014672;28;20726;-47
2023/09/10 08:45:07;;;;;;;13.27;11.90;;;24.60;99.90;;;;;;5011761;28;20568;-53
2023/09/10 08:47:39;;;;;;;11.57;10.60;;;24.60;99.90;;;;;;5011331;28;20502;-49
2023/09/10 08:50:10;;;;;;;11.67;10.53;;;24.70;99.90;;;;;;5011244;28;20454;-54
2023/09/10 08:52:38;;;;;;;14.63;11.80;;;24.70;99.90;;;;;;5016060;28;20450;-52
2023/09/10 08:55:06;;;;;;;16.57;12.97;;;24.70;99.90;;;;;;5014924;28;20528;-51
2023/09/10 08:57:33;;;;;;;14.13;11.73;;;24.70;99.90;;;;;;5014523;28;20970;-54
2023/09/10 09:00:06;;;;;;;12.17;10.97;;;24.70;99.90;;;;;;5010794;28;20459;-58
2023/09/10 09:02:33;;;;;;;14.97;10.23;;;24.70;99.90;;;;;;5014720;28;20537;-55
2023/09/10 09:04:59;;;;;;;11.20;10.03;;;24.70;99.90;;;;;;5011801;28;20478;-50
2023/09/10 09:07:35;;;;;;;9.20;8.40;;;24.70;99.90;;;;;;5015735;28;20458;-53
2023/09/10 09:10:06;;;;;;;12.23;9.73;;;24.70;99.90;;;;;;5013375;28;20800;-56
2023/09/10 09:12:35;;;;;;;10.73;9.37;;;24.70;99.90;;;;;;5014141;28;20454;-47
2023/09/10 09:15:03;;;;;;;7.80;7.00;;;24.70;99.90;;;;;;5009064;28;20502;-57
2023/09/10 09:17:30;;;;;;;10.13;9.13;;;24.70;99.90;;;;;;5014451;28;21156;-55
2023/09/10 09:20:00;;;;;;;11.17;10.07;;;24.70;99.90;;;;;;5007952;28;20465;-56
2023/09/10 09:22:31;;;;;;;10.63;9.30;;;24.70;99.90;;;;;;5017805;28;20493;-53
2023/09/10 09:24:58;;;;;;;11.10;10.00;;;24.70;99.90;;;;;;5013504;28;20991;-53
2023/09/10 09:27:26;;;;;;;11.47;10.27;;;24.70;99.90;;;;;;5013186;28;20466;-52
2023/09/10 09:29:53;;;;;;;10.13;9.23;;;24.70;99.90;;;;;;5007994;28;20470;-56
2023/09/10 09:32:21;;;;;;;14.90;10.37;;;24.70;99.90;;;;;;5009777;28;20481;-54
2023/09/10 09:34:48;;;;;;;11.57;10.47;;;24.70;99.90;;;;;;5009469;28;21059;-49
2023/09/10 09:37:19;;;;;;;11.57;10.30;;;24.70;99.90;;;;;;5011356;28;20466;-53
2023/09/10 09:39:51;;;;;;;11.33;9.93;;;24.70;99.90;;;;;;5008519;28;20546;-51
2023/09/10 09:42:17;;;;;;;11.47;10.47;;;24.70;99.90;;;;;;5010579;28;20455;-57
2023/09/10 09:44:45;;;;;;;11.10;10.20;;;24.70;99.90;;;;;;5002837;28;20467;-56
2023/09/10 09:47:13;;;;;;;11.50;9.97;;;24.70;99.90;;;;;;5008889;28;20471;-57
2023/09/10 09:49:44;;;;;;;13.07;9.07;;;24.80;99.90;;;;;;5014686;28;20470;-53
2023/09/10 09:52:12;;;;;;;11.90;10.67;;;24.80;99.90;;;;;;5013863;28;21034;-53
2023/09/10 09:54:39;;;;;;;12.73;11.50;;;24.80;99.90;;;;;;5005313;28;20464;-53
2023/09/10 09:57:08;;;;;;;11.00;10.03;;;24.80;99.90;;;;;;5006589;28;21245;-53
2023/09/10 09:59:35;;;;;;;10.13;9.13;;;24.80;99.90;;;;;;5017970;28;20477;-55
2023/09/10 10:02:02;;;;;;;10.60;9.43;;;24.80;99.90;;;;;;5013271;28;20466;-57
2023/09/10 10:04:29;;;;;;;11.43;8.50;;;24.80;99.90;;;;;;4997076;28;20462;-64
2023/09/10 10:06:56;;;;;;;8.87;8.07;;;24.80;99.90;;;;;;4996217;28;20569;-59
2023/09/10 10:09:23;;;;;;;8.40;7.80;;;24.80;99.90;;;;;;4986945;28;20929;-62
2023/09/10 10:11:50;;;;;;;8.40;7.80;;;24.80;99.90;;;;;;4994855;28;20957;-54
2023/09/10 10:14:20;;;;;;;9.53;8.70;;;24.80;99.90;;;;;;4986185;28;20452;-52
2023/09/10 10:16:47;;;;;;;10.77;9.27;;;24.80;99.90;;;;;;4993520;28;20458;-62
2023/09/10 10:19:15;;;;;;;8.77;8.10;;;24.80;99.90;;;;;;4994871;28;20461;-62
2023/09/10 10:21:42;;;;;;;9.00;8.07;;;24.80;99.90;;;;;;5001409;28;20974;-55
2023/09/10 10:24:09;;;;;;;9.53;8.77;;;24.90;99.90;;;;;;5016055;28;20463;-60
2023/09/10 10:26:36;;;;;;;9.27;8.57;;;24.90;99.90;;;;;;5014348;28;20809;-54
2023/09/10 10:29:04;;;;;;;9.40;8.60;;;24.90;99.90;;;;;;4985933;28;20462;-56
2023/09/10 10:31:37;;;;;;;10.10;9.20;;;24.90;99.90;;;;;;5014722;28;20470;-53
2023/09/10 10:34:09;;;;;;;9.10;8.30;;;24.90;99.90;;;;;;5015599;28;20793;-58
2023/09/10 10:36:49;;;;;;;9.10;8.30;;;24.90;99.90;;;;;;5010288;28;20474;-55
2023/09/10 10:39:17;;;;;;;9.47;8.60;;;25.00;99.90;;;;;;5013568;28;20830;-55
2023/09/10 10:41:48;;;;;;;10.57;9.67;;;25.00;99.90;;;;;;5015676;28;20462;-57
2023/09/10 10:44:26;;;;;;;8.57;7.87;;;25.00;99.90;;;;;;5011551;28;20466;-64
2023/09/10 10:47:13;;;;;;;13.10;8.53;;;25.00;99.90;;;;;;5014757;28;20893;-57
2023/09/10 10:49:47;;;;;;;9.37;8.40;;;25.00;99.90;;;;;;5012309;28;20905;-56
2023/09/10 10:52:16;;;;;;;10.27;8.80;;;25.10;99.90;;;;;;5013838;28;20541;-54
2023/09/10 10:54:44;;;;;;;10.03;8.27;;;25.10;99.90;;;;;;5011358;28;20458;-60
2023/09/10 10:57:11;;;;;;;11.23;7.43;;;25.10;99.90;;;;;;5016075;28;21689;-56
2023/09/10 10:59:39;;;;;;;8.97;8.17;;;25.10;99.90;;;;;;5016914;28;20468;-54
2023/09/10 11:02:21;;;;;;;9.17;8.27;;;25.10;99.90;;;;;;5017753;28;20475;-58
2023/09/10 11:04:58;;;;;;;8.53;7.83;;;25.10;99.90;;;;;;5016178;28;20481;-54
2023/09/10 11:07:26;;;;;;;8.60;7.83;;;25.20;99.90;;;;;;5017375;28;20486;-63
2023/09/10 11:09:53;;;;;;;10.07;9.13;;;25.20;99.90;;;;;;5013407;28;20557;-58
2023/09/10 11:12:20;;;;;;;9.67;8.67;;;25.20;99.90;;;;;;5012065;28;20458;-56
2023/09/10 11:15:07;;;;;;;9.23;8.30;;;25.20;99.90;;;;;;5017534;28;21117;-61
2023/09/10 11:17:36;;;;;;;10.27;9.30;;;25.30;99.90;;;;;;5015373;28;20441;-56
2023/09/10 11:20:05;;;;;;;10.93;7.90;;;25.30;99.90;;;;;;5015980;28;20469;-52
2023/09/10 11:23:09;;;;;;;10.40;8.13;;;25.30;99.90;;;;;;5016993;28;20887;-51
2023/09/10 11:25:39;;;;;;;9.10;7.83;;;25.30;99.90;;;;;;5013874;28;20604;-50
2023/09/10 11:28:38;;;;;;;9.93;9.00;;;25.30;99.90;;;;;;5016673;28;20950;-58
2023/09/10 11:31:05;;;;;;;10.90;9.47;;;25.30;99.90;;;;;;5016858;28;20462;-56
2023/09/10 11:33:34;;;;;;;9.80;8.87;;;25.40;99.90;;;;;;5016784;28;20460;-48
2023/09/10 11:36:00;;;;;;;9.00;7.53;;;25.40;99.90;;;;;;5016456;28;20829;-50
2023/09/10 11:38:31;;;;;;;12.03;8.83;;;25.40;99.90;;;;;;5007949;28;20985;-61
2023/09/10 11:40:59;;;;;;;10.10;7.80;;;25.40;99.90;;;;;;5013278;28;20508;-51
2023/09/10 11:43:28;;;;;;;8.90;8.00;;;25.40;99.90;;;;;;5008175;28;20455;-51
2023/09/10 11:45:56;;;;;;;14.73;9.43;;;25.40;99.90;;;;;;5008661;28;20487;-54
2023/09/10 11:48:23;;;;;;;9.23;7.63;;;25.50;99.90;;;;;;5011988;28;20465;-55
2023/09/10 11:50:51;;;;;;;9.07;8.13;;;25.50;99.90;;;;;;5009935;28;20827;-59
2023/09/10 11:53:19;;;;;;;11.47;8.70;;;25.50;99.90;;;;;;5016043;28;20466;-52
2023/09/10 11:55:47;;;;;;;15.53;9.20;;;25.50;99.90;;;;;;5008066;28;20827;-62
2023/09/10 11:58:14;;;;;;;9.50;8.60;;;25.50;99.90;;;;;;5009388;28;20954;-56
2023/09/10 12:00:44;;;;;;;8.63;7.60;;;25.50;99.90;;;;;;5011607;28;20459;-59
2023/09/10 12:03:11;;;;;;;11.10;8.43;;;25.50;99.90;;;;;;5011009;28;20527;-61
2023/09/10 12:05:38;;;;;;;11.07;8.00;;;25.50;99.90;;;;;;5016872;28;20464;-64
2023/09/10 12:08:06;;;;;;;10.40;8.87;;;25.60;99.90;;;;;;5016464;28;20455;-49
2023/09/10 12:10:34;;;;;;;12.23;8.40;;;25.60;99.90;;;;;;5017196;28;20463;-53
2023/09/10 12:13:15;;;;;;;9.60;7.50;;;25.60;99.90;;;;;;5015979;28;20907;-56
2023/09/10 12:15:42;;;;;;;8.40;7.50;;;25.60;99.90;;;;;;5008541;28;20462;-60
2023/09/10 12:18:09;;;;;;;9.10;7.83;;;25.60;99.90;;;;;;5013594;28;20442;-62
2023/09/10 12:20:37;;;;;;;15.43;9.80;;;25.60;99.90;;;;;;5009163;28;20554;-55
2023/09/10 12:23:06;;;;;;;15.07;9.07;;;25.70;99.90;;;;;;5012712;28;20480;-56
2023/09/10 12:25:33;;;;;;;13.63;8.40;;;25.70;99.90;;;;;;5009496;28;20458;-60
2023/09/10 12:28:00;;;;;;;9.93;8.37;;;25.70;99.90;;;;;;5017348;28;20492;-55
2023/09/10 12:30:27;;;;;;;12.17;8.40;;;25.70;99.90;;;;;;5005718;28;20831;-51
2023/09/10 12:32:54;;;;;;;10.40;7.60;;;25.70;99.90;;;;;;5004677;28;20455;-53
2023/09/10 12:35:21;;;;;;;20.77;9.73;;;25.70;99.90;;;;;;5004303;28;20467;-53
2023/09/10 12:37:50;;;;;;;21.03;8.53;;;25.70;99.90;;;;;;5004699;28;20470;-57
2023/09/10 12:40:19;;;;;;;16.10;9.37;;;25.70;99.90;;;;;;5004426;28;20469;-54
2023/09/10 12:42:46;;;;;;;13.17;9.23;;;25.70;99.90;;;;;;5004583;28;20828;-63
2023/09/10 12:45:14;;;;;;;10.63;8.17;;;25.80;99.90;;;;;;5003915;28;20459;-62
2023/09/10 12:47:41;;;;;;;13.23;8.87;;;25.80;99.90;;;;;;5005420;28;20676;-56